createdAt,value
2022-12-31T00:00:17.060Z,18.80
2022-12-31T00:02:44.832Z,17.10
2022-12-31T00:05:12.314Z,18.62
2022-12-31T00:10:06.736Z,19.05
2022-12-31T00:12:34.155Z,17.40
2022-12-31T00:15:03.880Z,17.55
2022-12-31T00:17:31.782Z,19.37
2022-12-31T00:19:59.163Z,18.27
2022-12-31T00:22:26.604Z,18.40
2022-12-31T00:24:54.289Z,17.17
2022-12-31T00:27:22.414Z,16.35
2022-12-31T00:29:49.828Z,19.50
2022-12-31T00:32:17.647Z,16.45
2022-12-31T00:34:45.016Z,17.30
2022-12-31T00:37:12.384Z,15.95
2022-12-31T00:39:40.030Z,16.65
2022-12-31T00:42:07.562Z,14.38
2022-12-31T00:44:34.922Z,14.68
2022-12-31T00:47:02.613Z,15.07
2022-12-31T00:49:30.030Z,14.98
2022-12-31T00:51:57.893Z,14.65
2022-12-31T00:54:25.568Z,14.73
2022-12-31T00:56:52.971Z,14.65
2022-12-31T00:59:20.565Z,14.23
2022-12-31T01:01:50.073Z,14.85
2022-12-31T01:04:20.276Z,13.85
2022-12-31T01:06:48.463Z,14.80
2022-12-31T01:09:17.258Z,14.48
2022-12-31T01:11:45.420Z,15.77
2022-12-31T01:14:16.399Z,16.48
2022-12-31T01:16:49.419Z,15.55
2022-12-31T01:19:22.997Z,15.20
2022-12-31T01:21:51.299Z,16.20
2022-12-31T01:24:19.671Z,15.75
2022-12-31T01:26:47.527Z,14.95
2022-12-31T01:29:16.953Z,15.52
2022-12-31T01:31:44.676Z,14.93
2022-12-31T01:34:12.058Z,14.68
2022-12-31T01:36:39.541Z,15.70
2022-12-31T01:39:08.686Z,15.38
2022-12-31T01:41:39.564Z,15.15
2022-12-31T01:44:13.235Z,15.10
2022-12-31T01:46:52.700Z,14.48
2022-12-31T01:49:42.209Z,13.73
2022-12-31T01:52:17.794Z,14.30
2022-12-31T01:54:50.569Z,14.45
2022-12-31T01:57:18.480Z,13.13
2022-12-31T01:59:46.480Z,14.68
2022-12-31T02:02:14.632Z,13.68
2022-12-31T02:04:42.487Z,14.30
2022-12-31T02:07:10.459Z,13.43
2022-12-31T02:09:39.963Z,14.80
2022-12-31T02:12:09.053Z,13.65
2022-12-31T02:14:45.097Z,14.02
2022-12-31T02:17:31.495Z,14.90
2022-12-31T02:20:16.214Z,13.43
2022-12-31T02:23:12.873Z,13.90
2022-12-31T02:26:11.127Z,15.45
2022-12-31T02:28:53.914Z,13.82
2022-12-31T02:31:37.419Z,14.07
2022-12-31T02:34:21.061Z,14.80
2022-12-31T02:36:50.805Z,15.15
2022-12-31T02:39:18.633Z,14.77
2022-12-31T02:41:50.409Z,13.30
2022-12-31T02:44:26.684Z,13.90
2022-12-31T02:47:16.778Z,15.25
2022-12-31T02:50:03.027Z,14.50
2022-12-31T02:52:48.952Z,15.23
2022-12-31T02:55:35.317Z,16.37
2022-12-31T02:58:08.576Z,16.85
2022-12-31T03:01:00.475Z,15.68
2022-12-31T03:03:28.638Z,16.65
2022-12-31T03:05:57.057Z,16.60
2022-12-31T03:08:25.961Z,16.90
2022-12-31T03:10:53.411Z,16.50
2022-12-31T03:13:21.093Z,17.95
2022-12-31T03:15:48.593Z,16.70
2022-12-31T03:18:17.815Z,15.20
2022-12-31T03:21:09.449Z,16.48
2022-12-31T03:23:39.673Z,17.35
2022-12-31T03:26:11.052Z,16.02
2022-12-31T03:28:40.201Z,16.85
2022-12-31T03:31:08.622Z,15.85
2022-12-31T03:33:38.982Z,16.25
2022-12-31T03:36:14.612Z,16.70
2022-12-31T03:38:42.570Z,17.12
2022-12-31T03:41:11.022Z,17.33
2022-12-31T03:43:38.564Z,17.85
2022-12-31T03:46:06.543Z,17.52
2022-12-31T03:48:34.060Z,15.70
2022-12-31T03:51:01.448Z,16.92
2022-12-31T03:53:29.133Z,15.48
2022-12-31T03:55:56.564Z,15.57
2022-12-31T03:58:23.976Z,16.75
2022-12-31T04:00:51.697Z,16.05
2022-12-31T04:03:19.488Z,16.40
2022-12-31T04:05:53.386Z,15.40
2022-12-31T04:08:21.072Z,14.98
2022-12-31T04:10:48.445Z,15.23
2022-12-31T04:13:16.859Z,14.93
2022-12-31T04:15:44.537Z,15.75
2022-12-31T04:18:12.620Z,15.25
2022-12-31T04:20:40.328Z,15.73
2022-12-31T04:23:08.021Z,15.82
2022-12-31T04:25:35.399Z,16.12
2022-12-31T04:28:02.797Z,15.10
2022-12-31T04:30:30.506Z,15.43
2022-12-31T04:32:57.897Z,15.85
2022-12-31T04:35:25.278Z,16.37
2022-12-31T04:37:52.998Z,16.37
2022-12-31T04:40:20.370Z,15.88
2022-12-31T04:42:47.752Z,15.10
2022-12-31T04:45:15.406Z,16.17
2022-12-31T04:47:43.438Z,16.08
2022-12-31T04:50:11.670Z,16.80
2022-12-31T04:52:42.887Z,15.90
2022-12-31T04:55:11.020Z,16.85
2022-12-31T04:57:39.049Z,15.70
2022-12-31T05:00:08.009Z,16.62
2022-12-31T05:02:35.702Z,17.05
2022-12-31T05:05:03.581Z,18.25
2022-12-31T05:07:30.960Z,16.48
2022-12-31T05:09:58.374Z,17.37
2022-12-31T05:12:26.372Z,16.98
2022-12-31T05:14:53.865Z,17.70
2022-12-31T05:17:21.495Z,17.85
2022-12-31T05:19:49.187Z,16.90
2022-12-31T05:22:31.869Z,17.70
2022-12-31T05:25:00.489Z,16.48
2022-12-31T05:27:31.207Z,16.48
2022-12-31T05:29:59.756Z,16.30
2022-12-31T05:32:27.566Z,17.25
2022-12-31T05:34:54.950Z,17.30
2022-12-31T05:37:22.446Z,18.50
2022-12-31T05:39:50.135Z,16.75
2022-12-31T05:42:17.631Z,16.95
2022-12-31T05:44:45.044Z,16.50
2022-12-31T05:47:12.877Z,16.70
2022-12-31T05:49:40.383Z,16.27
2022-12-31T05:52:07.935Z,16.05
2022-12-31T05:54:36.618Z,16.42
2022-12-31T05:57:05.375Z,16.25
2022-12-31T05:59:33.141Z,18.02
2022-12-31T06:02:01.120Z,16.60
2022-12-31T06:04:28.783Z,15.88
2022-12-31T06:06:56.289Z,17.12
2022-12-31T06:09:23.917Z,16.73
2022-12-31T06:11:52.042Z,15.98
2022-12-31T06:14:19.447Z,16.95
2022-12-31T06:16:46.895Z,15.70
2022-12-31T06:19:14.621Z,17.45
2022-12-31T06:21:42.039Z,17.27
2022-12-31T06:24:09.465Z,16.65
2022-12-31T06:26:37.175Z,18.15
2022-12-31T06:29:04.586Z,17.92
2022-12-31T06:31:32.537Z,17.58
2022-12-31T06:34:00.501Z,18.98
2022-12-31T06:36:28.055Z,17.83
2022-12-31T06:38:55.555Z,17.55
2022-12-31T06:41:23.277Z,18.17
2022-12-31T06:43:50.693Z,16.05
2022-12-31T06:46:18.633Z,14.13
2022-12-31T06:48:46.320Z,14.50
2022-12-31T06:51:17.802Z,16.48
2022-12-31T06:53:46.980Z,15.50
2022-12-31T06:56:32.993Z,14.30
2022-12-31T06:59:02.420Z,13.88
2022-12-31T07:01:54.111Z,13.15
2022-12-31T07:04:49.704Z,14.20
2022-12-31T07:07:54.080Z,12.65
2022-12-31T07:10:36.370Z,14.02
2022-12-31T07:13:03.702Z,13.68
2022-12-31T07:15:53.425Z,13.70
2022-12-31T07:18:46.588Z,13.38
2022-12-31T07:21:16.702Z,14.05
2022-12-31T07:23:44.322Z,14.48
2022-12-31T07:26:20.549Z,16.98
2022-12-31T07:28:51.218Z,17.05
2022-12-31T07:31:57.726Z,16.55
2022-12-31T07:34:46.483Z,16.35
2022-12-31T07:37:30.753Z,18.08
2022-12-31T07:40:10.554Z,19.45
2022-12-31T07:42:50.283Z,18.55
2022-12-31T07:45:23.532Z,16.95
2022-12-31T07:47:51.450Z,18.33
2022-12-31T07:50:19.635Z,16.90
2022-12-31T07:52:47.425Z,16.17
2022-12-31T07:55:14.972Z,16.73
2022-12-31T07:57:53.650Z,16.92
2022-12-31T08:00:21.397Z,17.27
2022-12-31T08:03:03.897Z,16.48
2022-12-31T08:05:51.200Z,16.95
2022-12-31T08:08:25.037Z,17.33
2022-12-31T08:11:20.131Z,17.58
2022-12-31T08:13:47.906Z,17.62
2022-12-31T08:16:15.582Z,18.95
2022-12-31T08:18:43.154Z,17.95
2022-12-31T08:21:14.295Z,18.00
2022-12-31T08:23:51.879Z,19.52
2022-12-31T08:26:55.243Z,18.20
2022-12-31T08:29:32.504Z,17.12
2022-12-31T08:32:26.235Z,18.23
2022-12-31T08:34:56.641Z,18.30
2022-12-31T08:37:37.848Z,17.05
2022-12-31T08:40:22.926Z,18.62
2022-12-31T08:42:56.649Z,17.62
2022-12-31T08:45:37.889Z,17.90
2022-12-31T08:48:24.600Z,17.50
2022-12-31T08:50:52.416Z,17.33
2022-12-31T08:53:20.753Z,17.30
2022-12-31T08:55:50.231Z,17.30
2022-12-31T08:58:36.300Z,17.65
2022-12-31T09:01:04.716Z,18.58
2022-12-31T09:04:15.383Z,20.73
2022-12-31T09:06:49.348Z,20.10
2022-12-31T09:09:47.281Z,22.67
2022-12-31T09:12:29.083Z,22.87
2022-12-31T09:15:15.795Z,22.55
2022-12-31T09:17:48.685Z,20.60
2022-12-31T09:20:42.333Z,21.35
2022-12-31T09:23:12.584Z,21.97
2022-12-31T09:26:17.391Z,30.37
2022-12-31T09:29:01.829Z,24.40
2022-12-31T09:31:38.755Z,20.83
2022-12-31T09:34:19.732Z,18.52
2022-12-31T09:36:51.237Z,19.20
2022-12-31T09:39:48.384Z,19.50
2022-12-31T09:42:43.921Z,18.17
2022-12-31T09:45:59.530Z,19.08
2022-12-31T09:48:40.812Z,18.02
2022-12-31T09:51:25.581Z,18.67
2022-12-31T09:54:15.562Z,17.25
2022-12-31T09:56:57.161Z,17.87
2022-12-31T09:59:57.305Z,19.35
2022-12-31T10:02:43.727Z,20.58
2022-12-31T10:05:26.528Z,18.23
2022-12-31T10:08:00.307Z,19.50
2022-12-31T10:10:40.094Z,20.70
2022-12-31T10:13:28.863Z,20.65
2022-12-31T10:16:16.042Z,21.87
2022-12-31T10:19:13.811Z,21.60
2022-12-31T10:22:00.005Z,20.05
2022-12-31T10:24:50.993Z,18.95
2022-12-31T10:27:36.904Z,18.77
2022-12-31T10:30:15.502Z,18.20
2022-12-31T10:32:44.741Z,20.05
2022-12-31T10:35:43.777Z,20.48
2022-12-31T10:38:22.828Z,20.02
2022-12-31T10:41:08.554Z,21.52
2022-12-31T10:44:04.490Z,21.77
2022-12-31T10:46:50.646Z,22.30
2022-12-31T10:49:39.244Z,20.08
2022-12-31T10:52:42.391Z,21.60
2022-12-31T10:55:10.027Z,21.00
2022-12-31T10:58:01.887Z,21.15
2022-12-31T11:00:38.514Z,21.48
2022-12-31T11:03:40.284Z,20.58
2022-12-31T11:07:03.385Z,22.70
2022-12-31T11:09:52.363Z,24.23
2022-12-31T11:12:51.349Z,25.45
2022-12-31T11:15:22.068Z,23.05
2022-12-31T11:17:52.713Z,23.92
2022-12-31T11:20:38.532Z,24.27
2022-12-31T11:23:34.062Z,25.02
2022-12-31T11:26:18.278Z,25.45
2022-12-31T11:28:50.662Z,25.23
2022-12-31T11:31:58.261Z,25.33
2022-12-31T11:34:48.275Z,29.55
2022-12-31T11:37:42.117Z,24.40
2022-12-31T11:40:28.420Z,25.62
2022-12-31T11:43:21.713Z,25.37
2022-12-31T11:46:13.619Z,29.52
2022-12-31T11:49:12.572Z,27.42
2022-12-31T11:52:05.302Z,25.35
2022-12-31T11:54:41.466Z,27.27
2022-12-31T11:57:09.224Z,27.33
2022-12-31T11:59:36.981Z,27.05
2022-12-31T12:02:29.744Z,26.85
2022-12-31T12:05:06.541Z,26.23
2022-12-31T12:07:37.994Z,24.48
2022-12-31T12:10:31.947Z,22.92
2022-12-31T12:13:11.651Z,24.08
2022-12-31T12:15:40.420Z,28.48
2022-12-31T12:18:24.670Z,27.42
2022-12-31T12:20:52.959Z,25.02
2022-12-31T12:23:25.516Z,22.70
2022-12-31T12:25:53.284Z,23.30
2022-12-31T12:28:26.611Z,22.17
2022-12-31T12:31:04.100Z,22.03
2022-12-31T12:33:42.522Z,27.13
2022-12-31T12:36:13.936Z,30.40
2022-12-31T12:38:42.327Z,26.30
2022-12-31T12:41:18.702Z,23.48
2022-12-31T12:43:46.108Z,26.25
2022-12-31T12:46:33.685Z,26.10
2022-12-31T12:49:02.686Z,31.33
2022-12-31T12:51:51.798Z,28.87
2022-12-31T12:54:54.151Z,24.40
2022-12-31T12:57:29.757Z,22.85
2022-12-31T13:00:08.980Z,22.87
2022-12-31T13:03:11.980Z,29.15
2022-12-31T13:06:03.272Z,30.23
2022-12-31T13:08:35.569Z,25.80
2022-12-31T13:11:02.871Z,28.70
2022-12-31T13:14:10.715Z,22.58
2022-12-31T13:16:53.697Z,22.80
2022-12-31T13:19:34.380Z,29.90
2022-12-31T13:22:19.260Z,49.47
2022-12-31T13:25:07.643Z,31.73
2022-12-31T13:27:38.762Z,44.88
2022-12-31T13:30:19.823Z,45.55
2022-12-31T13:32:52.432Z,28.55
2022-12-31T13:35:37.550Z,26.42
2022-12-31T13:38:11.703Z,24.70
2022-12-31T13:40:51.466Z,24.42
2022-12-31T13:43:54.662Z,24.67
2022-12-31T13:46:28.079Z,25.10
2022-12-31T13:49:01.859Z,23.93
2022-12-31T13:51:29.234Z,22.27
2022-12-31T13:54:01.938Z,23.87
2022-12-31T13:56:33.796Z,22.70
2022-12-31T13:59:15.025Z,21.70
2022-12-31T14:01:50.316Z,23.17
2022-12-31T14:04:24.333Z,24.10
2022-12-31T14:06:59.739Z,24.80
2022-12-31T14:09:29.298Z,23.50
2022-12-31T14:12:02.622Z,22.55
2022-12-31T14:14:42.268Z,22.85
2022-12-31T14:17:39.162Z,21.20
2022-12-31T14:20:15.232Z,23.92
2022-12-31T14:23:11.629Z,23.23
2022-12-31T14:25:51.732Z,23.67
2022-12-31T14:28:24.830Z,22.23
2022-12-31T14:31:19.020Z,24.10
2022-12-31T14:34:15.893Z,21.95
2022-12-31T14:36:57.442Z,21.92
2022-12-31T14:39:51.247Z,23.23
2022-12-31T14:42:29.579Z,23.38
2022-12-31T14:45:04.145Z,22.23
2022-12-31T14:47:41.383Z,24.48
2022-12-31T14:50:14.764Z,23.95
2022-12-31T14:52:55.196Z,23.90
2022-12-31T14:55:24.915Z,23.33
2022-12-31T14:58:26.432Z,24.58
2022-12-31T15:01:11.072Z,24.63
2022-12-31T15:03:45.459Z,24.75
2022-12-31T15:06:22.593Z,24.58
2022-12-31T15:09:15.131Z,24.83
2022-12-31T15:11:59.146Z,26.92
2022-12-31T15:14:54.758Z,25.95
2022-12-31T15:17:27.883Z,24.80
2022-12-31T15:20:17.614Z,27.30
2022-12-31T15:22:47.327Z,29.65
2022-12-31T15:25:40.801Z,27.02
2022-12-31T15:28:26.738Z,27.98
2022-12-31T15:30:59.088Z,29.98
2022-12-31T15:33:33.784Z,26.92
2022-12-31T15:36:23.879Z,29.05
2022-12-31T15:38:51.570Z,31.55
2022-12-31T15:41:19.663Z,44.88
2022-12-31T15:44:12.516Z,41.37
2022-12-31T15:46:41.696Z,27.05
2022-12-31T15:49:18.183Z,28.95
2022-12-31T15:51:56.552Z,28.33
2022-12-31T15:54:39.805Z,27.27
2022-12-31T15:57:14.616Z,30.33
2022-12-31T15:59:42.375Z,37.75
2022-12-31T16:02:20.337Z,32.53
2022-12-31T16:04:48.857Z,31.98
2022-12-31T16:07:17.187Z,33.78
2022-12-31T16:09:50.802Z,31.55
2022-12-31T16:12:34.433Z,33.40
2022-12-31T16:15:04.061Z,26.77
2022-12-31T16:17:36.750Z,30.85
2022-12-31T16:20:25.484Z,33.88
2022-12-31T16:22:56.281Z,32.63
2022-12-31T16:25:33.032Z,35.33
2022-12-31T16:28:02.860Z,37.58
2022-12-31T16:30:32.102Z,39.75
2022-12-31T16:33:03.268Z,39.95
2022-12-31T16:35:33.311Z,39.85
2022-12-31T16:38:15.186Z,39.00
2022-12-31T16:40:46.804Z,37.45
2022-12-31T16:43:43.600Z,37.58
2022-12-31T16:46:27.081Z,39.67
2022-12-31T16:49:16.040Z,38.42
2022-12-31T16:51:45.924Z,38.92
2022-12-31T16:54:31.925Z,37.40
2022-12-31T16:57:00.304Z,37.38
2022-12-31T16:59:34.881Z,39.67
2022-12-31T17:02:05.215Z,43.25
2022-12-31T17:04:32.702Z,44.97
2022-12-31T17:07:24.862Z,44.25
2022-12-31T17:10:04.779Z,53.45
2022-12-31T17:13:00.617Z,55.15
2022-12-31T17:15:26.620Z,56.63
2022-12-31T17:17:57.521Z,53.13
2022-12-31T17:20:30.128Z,53.60
2022-12-31T17:23:07.959Z,45.35
2022-12-31T17:25:38.805Z,53.03
2022-12-31T17:28:19.413Z,63.60
2022-12-31T17:30:47.164Z,46.30
2022-12-31T17:33:14.461Z,47.15
2022-12-31T17:35:43.814Z,49.45
2022-12-31T17:38:32.557Z,64.22
2022-12-31T17:41:06.157Z,66.93
2022-12-31T17:43:35.849Z,83.70
2022-12-31T17:46:23.951Z,82.65
2022-12-31T17:49:01.570Z,80.97
2022-12-31T17:51:29.069Z,81.10
2022-12-31T17:53:59.852Z,93.32
2022-12-31T17:56:27.276Z,90.72
2022-12-31T17:58:54.832Z,99.95
2022-12-31T18:01:23.533Z,106.18
2022-12-31T18:03:51.607Z,94.53
2022-12-31T18:06:19.598Z,114.55
2022-12-31T18:08:47.341Z,103.07
2022-12-31T18:11:25.478Z,75.87
2022-12-31T18:13:53.307Z,82.43
2022-12-31T18:16:21.005Z,80.80
2022-12-31T18:18:48.459Z,81.10
2022-12-31T18:21:20.240Z,78.50
2022-12-31T18:23:48.612Z,83.60
2022-12-31T18:26:18.318Z,80.50
2022-12-31T18:28:45.992Z,71.72
2022-12-31T18:31:17.638Z,77.40
2022-12-31T18:33:45.276Z,81.22
2022-12-31T18:36:17.525Z,81.28
2022-12-31T18:38:45.793Z,74.97
2022-12-31T18:41:29.329Z,72.95
2022-12-31T18:43:57.027Z,83.30
2022-12-31T18:46:24.958Z,94.75
2022-12-31T18:48:52.355Z,78.97
2022-12-31T18:51:26.453Z,82.25
2022-12-31T18:53:59.816Z,86.32
2022-12-31T18:56:28.074Z,89.70
2022-12-31T18:58:55.564Z,96.47
2022-12-31T19:01:38.340Z,90.45
2022-12-31T19:04:22.802Z,74.53
2022-12-31T19:06:54.362Z,80.30
2022-12-31T19:12:13.144Z,80.28
2022-12-31T19:14:40.914Z,73.70
2022-12-31T19:19:34.994Z,84.47
2022-12-31T19:22:02.976Z,77.10
2022-12-31T19:24:30.549Z,79.65
2022-12-31T19:26:57.923Z,81.63
2022-12-31T19:29:27.308Z,79.47
2022-12-31T19:31:54.961Z,80.80
2022-12-31T19:34:22.358Z,85.15
2022-12-31T19:36:50.004Z,86.55
2022-12-31T19:39:20.193Z,95.38
2022-12-31T19:41:52.991Z,89.90
2022-12-31T19:44:28.076Z,85.43
2022-12-31T19:46:55.466Z,84.05
2022-12-31T19:49:24.144Z,82.10
2022-12-31T19:51:51.900Z,84.40
2022-12-31T19:54:19.295Z,88.25
2022-12-31T19:56:46.728Z,83.72
2022-12-31T19:59:14.447Z,80.55
2022-12-31T20:01:42.151Z,72.62
2022-12-31T20:04:09.930Z,108.78
2022-12-31T20:06:37.342Z,88.87
2022-12-31T20:09:04.783Z,90.22
2022-12-31T20:11:32.486Z,89.97
2022-12-31T20:13:59.896Z,95.38
2022-12-31T20:16:29.699Z,89.40
2022-12-31T20:18:57.498Z,89.78
2022-12-31T20:21:27.605Z,88.37
2022-12-31T20:23:55.291Z,89.28
2022-12-31T20:26:24.091Z,84.32
2022-12-31T20:28:52.516Z,84.07
2022-12-31T20:31:22.970Z,79.60
2022-12-31T20:33:50.810Z,78.43
2022-12-31T20:36:18.260Z,74.87
2022-12-31T20:38:45.829Z,79.22
2022-12-31T20:41:16.275Z,67.07
2022-12-31T20:43:44.267Z,53.25
2022-12-31T20:46:15.746Z,53.90
2022-12-31T20:48:45.130Z,37.78
2022-12-31T20:51:13.752Z,41.40
2022-12-31T20:53:49.058Z,50.30
2022-12-31T20:56:16.900Z,51.40
2022-12-31T20:58:44.500Z,49.55
2022-12-31T21:01:12.529Z,45.05
2022-12-31T21:06:30.428Z,69.43
2022-12-31T21:08:59.789Z,70.20
2022-12-31T21:11:45.826Z,79.12
2022-12-31T21:14:13.586Z,84.00
2022-12-31T21:16:41.006Z,94.03
2022-12-31T21:19:09.000Z,97.47
2022-12-31T21:21:36.990Z,87.18
2022-12-31T21:24:04.670Z,80.80
2022-12-31T21:26:32.329Z,75.87
2022-12-31T21:29:00.131Z,78.90
2022-12-31T21:31:27.768Z,82.22
2022-12-31T21:33:55.405Z,88.07
2022-12-31T21:36:23.098Z,91.10
2022-12-31T21:38:50.549Z,96.25
2022-12-31T21:41:36.915Z,93.95
2022-12-31T21:44:04.666Z,91.55
2022-12-31T21:46:32.143Z,91.87
2022-12-31T21:49:00.216Z,93.47
2022-12-31T21:51:29.942Z,92.35
2022-12-31T21:53:57.837Z,89.90
2022-12-31T21:56:25.268Z,86.82
2022-12-31T21:59:16.374Z,95.03
2022-12-31T22:02:02.462Z,90.62
2022-12-31T22:07:17.836Z,87.75
2022-12-31T22:09:46.083Z,91.97
2022-12-31T22:12:13.493Z,90.15
2022-12-31T22:15:15.193Z,84.05
2022-12-31T22:17:28.796Z,76.82
2022-12-31T22:22:43.932Z,70.15
2022-12-31T22:25:11.373Z,81.55
2022-12-31T22:27:38.871Z,73.72
2022-12-31T22:30:07.396Z,95.25
2022-12-31T22:32:35.191Z,134.75
2022-12-31T22:35:02.581Z,102.55
2022-12-31T22:40:17.864Z,61.47
2022-12-31T22:42:45.583Z,81.18
2022-12-31T22:45:12.968Z,82.20
2022-12-31T22:47:40.660Z,86.47
2022-12-31T22:50:08.807Z,84.18
2022-12-31T22:52:36.185Z,89.80
2022-12-31T22:55:03.850Z,87.03
2022-12-31T22:57:31.527Z,81.25
2022-12-31T22:59:58.979Z,73.05
2022-12-31T23:02:26.477Z,75.95
2022-12-31T23:04:54.255Z,96.05
2022-12-31T23:07:41.661Z,97.88
2022-12-31T23:10:29.444Z,93.00
2022-12-31T23:12:56.861Z,99.90
2022-12-31T23:15:43.291Z,94.82
2022-12-31T23:18:29.185Z,93.10
2022-12-31T23:21:15.392Z,101.18
2022-12-31T23:23:42.773Z,106.78
2022-12-31T23:26:10.551Z,113.18
2022-12-31T23:28:38.047Z,73.80
2022-12-31T23:31:06.543Z,61.40
2022-12-31T23:33:34.311Z,54.05
2022-12-31T23:36:05.845Z,48.03
2022-12-31T23:38:33.571Z,59.53
2022-12-31T23:41:01.139Z,65.53
2022-12-31T23:43:28.582Z,79.90
2022-12-31T23:45:56.260Z,75.57
2022-12-31T23:48:23.717Z,63.35
2022-12-31T23:50:53.837Z,87.78
2022-12-31T23:53:25.551Z,129.35
2022-12-31T23:55:53.298Z,125.70
2022-12-31T23:58:21.347Z,118.53
